sensor_id;sensor_type;location;lat;lon;timestamp;temperature;humidity
12015;DHT22;6066;48.138;16.402;2024-01-30T00:01:13;0.00;99.90
12015;DHT22;6066;48.138;16.402;2024-01-30T00:03:40;0.00;99.90
12015;DHT22;6066;48.138;16.402;2024-01-30T00:06:07;0.10;99.90
12015;DHT22;6066;48.138;16.402;2024-01-30T00:08:35;0.10;99.90
12015;DHT22;6066;48.138;16.402;2024-01-30T00:11:02;0.20;99.90
12015;DHT22;6066;48.138;16.402;2024-01-30T00:13:29;0.30;99.90
12015;DHT22;6066;48.138;16.402;2024-01-30T00:15:55;0.30;99.90
12015;DHT22;6066;48.138;16.402;2024-01-30T00:18:22;0.40;99.90
12015;DHT22;6066;48.138;16.402;2024-01-30T00:20:49;0.40;99.90
12015;DHT22;6066;48.138;16.402;2024-01-30T00:23:16;0.50;99.90
12015;DHT22;6066;48.138;16.402;2024-01-30T00:25:44;0.50;99.90
12015;DHT22;6066;48.138;16.402;2024-01-30T00:28:11;0.50;99.90
12015;DHT22;6066;48.138;16.402;2024-01-30T00:30:38;0.50;99.90
12015;DHT22;6066;48.138;16.402;2024-01-30T00:33:04;0.40;99.90
12015;DHT22;6066;48.138;16.402;2024-01-30T00:35:31;0.40;99.90
12015;DHT22;6066;48.138;16.402;2024-01-30T00:37:58;0.40;99.90
12015;DHT22;6066;48.138;16.402;2024-01-30T00:40:25;0.30;99.90
12015;DHT22;6066;48.138;16.402;2024-01-30T00:42:53;0.30;99.90
12015;DHT22;6066;48.138;16.402;2024-01-30T00:45:20;0.30;99.90
12015;DHT22;6066;48.138;16.402;2024-01-30T00:47:47;0.20;99.90
12015;DHT22;6066;48.138;16.402;2024-01-30T00:50:14;0.20;99.90
12015;DHT22;6066;48.138;16.402;2024-01-30T00:52:41;0.20;99.90
12015;DHT22;6066;48.138;16.402;2024-01-30T00:55:10;0.10;99.90
12015;DHT22;6066;48.138;16.402;2024-01-30T00:57:37;0.10;99.90
12015;DHT22;6066;48.138;16.402;2024-01-30T01:00:06;0.00;99.90
12015;DHT22;6066;48.138;16.402;2024-01-30T01:02:34;0.00;99.90
12015;DHT22;6066;48.138;16.402;2024-01-30T01:05:00;-0.10;99.90
12015;DHT22;6066;48.138;16.402;2024-01-30T01:07:27;-0.20;99.90
12015;DHT22;6066;48.138;16.402;2024-01-30T01:09:54;-0.20;99.90
12015;DHT22;6066;48.138;16.402;2024-01-30T01:12:21;-0.20;99.90
12015;DHT22;6066;48.138;16.402;2024-01-30T01:14:48;-0.30;99.90
12015;DHT22;6066;48.138;16.402;2024-01-30T01:17:16;-0.30;99.90
12015;DHT22;6066;48.138;16.402;2024-01-30T01:19:43;-0.30;99.90
12015;DHT22;6066;48.138;16.402;2024-01-30T01:22:10;-0.30;99.90
12015;DHT22;6066;48.138;16.402;2024-01-30T01:24:37;-0.20;99.90
12015;DHT22;6066;48.138;16.402;2024-01-30T01:27:04;-0.20;99.90
12015;DHT22;6066;48.138;16.402;2024-01-30T01:29:32;-0.20;99.90
12015;DHT22;6066;48.138;16.402;2024-01-30T01:31:59;-0.10;99.90
12015;DHT22;6066;48.138;16.402;2024-01-30T01:34:27;-0.10;99.90
12015;DHT22;6066;48.138;16.402;2024-01-30T01:36:54;-0.10;99.90
12015;DHT22;6066;48.138;16.402;2024-01-30T01:39:21;-0.10;99.90
12015;DHT22;6066;48.138;16.402;2024-01-30T01:41:48;-0.20;99.90
12015;DHT22;6066;48.138;16.402;2024-01-30T01:44:15;-0.20;99.90
12015;DHT22;6066;48.138;16.402;2024-01-30T01:46:42;-0.20;99.90
12015;DHT22;6066;48.138;16.402;2024-01-30T01:49:08;-0.20;99.90
12015;DHT22;6066;48.138;16.402;2024-01-30T01:51:37;-0.20;99.90
12015;DHT22;6066;48.138;16.402;2024-01-30T01:54:06;-0.30;99.90
12015;DHT22;6066;48.138;16.402;2024-01-30T01:56:33;-0.30;99.90
12015;DHT22;6066;48.138;16.402;2024-01-30T01:59:03;-0.40;99.90
12015;DHT22;6066;48.138;16.402;2024-01-30T02:01:31;-0.40;99.90
12015;DHT22;6066;48.138;16.402;2024-01-30T02:03:58;-0.40;99.90
12015;DHT22;6066;48.138;16.402;2024-01-30T02:06:25;-0.30;99.90
12015;DHT22;6066;48.138;16.402;2024-01-30T02:08:54;-0.30;99.90
12015;DHT22;6066;48.138;16.402;2024-01-30T02:11:21;-0.30;99.90
12015;DHT22;6066;48.138;16.402;2024-01-30T02:13:48;-0.30;99.90
12015;DHT22;6066;48.138;16.402;2024-01-30T02:16:15;-0.30;99.90
12015;DHT22;6066;48.138;16.402;2024-01-30T02:18:42;-0.30;99.90
12015;DHT22;6066;48.138;16.402;2024-01-30T02:21:14;-0.30;99.90
12015;DHT22;6066;48.138;16.402;2024-01-30T02:23:40;-0.20;99.90
12015;DHT22;6066;48.138;16.402;2024-01-30T02:26:08;-0.20;99.90
12015;DHT22;6066;48.138;16.402;2024-01-30T02:28:35;-0.30;99.90
12015;DHT22;6066;48.138;16.402;2024-01-30T02:31:02;-0.30;99.90
12015;DHT22;6066;48.138;16.402;2024-01-30T02:33:28;-0.40;99.90
12015;DHT22;6066;48.138;16.402;2024-01-30T02:35:55;-0.40;99.90
12015;DHT22;6066;48.138;16.402;2024-01-30T02:38:24;-0.50;99.90
12015;DHT22;6066;48.138;16.402;2024-01-30T02:40:52;-0.50;99.90
12015;DHT22;6066;48.138;16.402;2024-01-30T02:43:19;-0.50;99.90
12015;DHT22;6066;48.138;16.402;2024-01-30T02:45:45;-0.60;99.90
12015;DHT22;6066;48.138;16.402;2024-01-30T02:48:12;-0.50;99.90
12015;DHT22;6066;48.138;16.402;2024-01-30T02:50:39;-0.60;99.90
12015;DHT22;6066;48.138;16.402;2024-01-30T02:53:06;-0.60;99.90
12015;DHT22;6066;48.138;16.402;2024-01-30T02:55:34;-0.60;99.90
12015;DHT22;6066;48.138;16.402;2024-01-30T02:58:01;-0.60;99.90
12015;DHT22;6066;48.138;16.402;2024-01-30T03:00:28;-0.60;99.90
12015;DHT22;6066;48.138;16.402;2024-01-30T03:02:54;-0.60;99.90
12015;DHT22;6066;48.138;16.402;2024-01-30T03:05:21;-0.70;99.90
12015;DHT22;6066;48.138;16.402;2024-01-30T03:07:48;-0.70;99.90
12015;DHT22;6066;48.138;16.402;2024-01-30T03:10:15;-0.70;99.90
12015;DHT22;6066;48.138;16.402;2024-01-30T03:12:43;-0.70;99.90
12015;DHT22;6066;48.138;16.402;2024-01-30T03:15:10;-0.70;99.90
12015;DHT22;6066;48.138;16.402;2024-01-30T03:17:37;-0.70;99.90
12015;DHT22;6066;48.138;16.402;2024-01-30T03:20:04;-0.70;99.90
12015;DHT22;6066;48.138;16.402;2024-01-30T03:22:31;-0.60;99.90
12015;DHT22;6066;48.138;16.402;2024-01-30T03:24:58;-0.60;99.90
12015;DHT22;6066;48.138;16.402;2024-01-30T03:27:25;-0.50;99.90
12015;DHT22;6066;48.138;16.402;2024-01-30T03:29:53;-0.50;99.90
12015;DHT22;6066;48.138;16.402;2024-01-30T03:32:20;-0.40;99.90
12015;DHT22;6066;48.138;16.402;2024-01-30T03:34:46;-0.40;99.90
12015;DHT22;6066;48.138;16.402;2024-01-30T03:37:12;-0.40;99.90
12015;DHT22;6066;48.138;16.402;2024-01-30T03:39:39;-0.40;99.90
12015;DHT22;6066;48.138;16.402;2024-01-30T03:42:06;-0.40;99.90
12015;DHT22;6066;48.138;16.402;2024-01-30T03:44:33;-0.50;99.90
12015;DHT22;6066;48.138;16.402;2024-01-30T03:47:01;-0.50;99.90
12015;DHT22;6066;48.138;16.402;2024-01-30T03:49:28;-0.50;99.90
12015;DHT22;6066;48.138;16.402;2024-01-30T03:51:54;-0.60;99.90
12015;DHT22;6066;48.138;16.402;2024-01-30T03:54:21;-0.50;99.90
12015;DHT22;6066;48.138;16.402;2024-01-30T03:56:48;-0.50;99.90
12015;DHT22;6066;48.138;16.402;2024-01-30T03:59:15;-0.50;99.90
12015;DHT22;6066;48.138;16.402;2024-01-30T04:01:43;-0.40;99.90
12015;DHT22;6066;48.138;16.402;2024-01-30T04:04:11;-0.50;99.90
12015;DHT22;6066;48.138;16.402;2024-01-30T04:06:37;-0.50;99.90
12015;DHT22;6066;48.138;16.402;2024-01-30T04:09:04;-0.50;99.90
12015;DHT22;6066;48.138;16.402;2024-01-30T04:11:31;-0.50;99.90
12015;DHT22;6066;48.138;16.402;2024-01-30T04:13:58;-0.60;99.90
12015;DHT22;6066;48.138;16.402;2024-01-30T04:16:25;-0.60;99.90
12015;DHT22;6066;48.138;16.402;2024-01-30T04:18:51;-0.60;99.90
12015;DHT22;6066;48.138;16.402;2024-01-30T04:21:21;-0.60;99.90
12015;DHT22;6066;48.138;16.402;2024-01-30T04:23:48;-0.60;99.90
12015;DHT22;6066;48.138;16.402;2024-01-30T04:26:15;-0.60;99.90
12015;DHT22;6066;48.138;16.402;2024-01-30T04:28:42;-0.70;99.90
12015;DHT22;6066;48.138;16.402;2024-01-30T04:31:09;-0.70;99.90
12015;DHT22;6066;48.138;16.402;2024-01-30T04:33:36;-0.70;99.90
12015;DHT22;6066;48.138;16.402;2024-01-30T04:36:03;-0.80;99.90
12015;DHT22;6066;48.138;16.402;2024-01-30T04:38:31;-0.80;99.90
12015;DHT22;6066;48.138;16.402;2024-01-30T04:40:58;-0.80;99.90
12015;DHT22;6066;48.138;16.402;2024-01-30T04:43:25;-0.80;99.90
12015;DHT22;6066;48.138;16.402;2024-01-30T04:45:52;-0.80;99.90
12015;DHT22;6066;48.138;16.402;2024-01-30T04:48:19;-0.80;99.90
12015;DHT22;6066;48.138;16.402;2024-01-30T04:50:46;-0.80;99.90
12015;DHT22;6066;48.138;16.402;2024-01-30T04:53:13;-0.80;99.90
12015;DHT22;6066;48.138;16.402;2024-01-30T04:55:41;-0.80;99.90
12015;DHT22;6066;48.138;16.402;2024-01-30T04:58:08;-0.70;99.90
12015;DHT22;6066;48.138;16.402;2024-01-30T05:00:35;-0.80;99.90
12015;DHT22;6066;48.138;16.402;2024-01-30T05:03:01;-0.80;99.90
12015;DHT22;6066;48.138;16.402;2024-01-30T05:05:28;-0.70;99.90
12015;DHT22;6066;48.138;16.402;2024-01-30T05:07:57;-0.80;99.90
12015;DHT22;6066;48.138;16.402;2024-01-30T05:10:24;-0.80;99.90
12015;DHT22;6066;48.138;16.402;2024-01-30T05:12:52;-0.80;99.90
12015;DHT22;6066;48.138;16.402;2024-01-30T05:15:19;-0.80;99.90
12015;DHT22;6066;48.138;16.402;2024-01-30T05:17:45;-0.80;99.90
12015;DHT22;6066;48.138;16.402;2024-01-30T05:20:12;-0.80;99.90
12015;DHT22;6066;48.138;16.402;2024-01-30T05:22:39;-0.80;99.90
12015;DHT22;6066;48.138;16.402;2024-01-30T05:25:10;-0.90;99.90
12015;DHT22;6066;48.138;16.402;2024-01-30T05:27:37;-0.90;99.90
12015;DHT22;6066;48.138;16.402;2024-01-30T05:30:06;-0.90;99.90
12015;DHT22;6066;48.138;16.402;2024-01-30T05:32:33;-0.90;99.90
12015;DHT22;6066;48.138;16.402;2024-01-30T05:35:00;-0.90;99.90
12015;DHT22;6066;48.138;16.402;2024-01-30T05:37:27;-0.90;99.90
12015;DHT22;6066;48.138;16.402;2024-01-30T05:39:53;-0.90;99.90
12015;DHT22;6066;48.138;16.402;2024-01-30T05:42:20;-0.90;99.90
12015;DHT22;6066;48.138;16.402;2024-01-30T05:44:47;-0.90;99.90
12015;DHT22;6066;48.138;16.402;2024-01-30T05:47:15;-0.90;99.90
12015;DHT22;6066;48.138;16.402;2024-01-30T05:49:42;-0.90;99.90
12015;DHT22;6066;48.138;16.402;2024-01-30T05:52:09;-0.90;99.90
12015;DHT22;6066;48.138;16.402;2024-01-30T05:54:36;-0.90;99.90
12015;DHT22;6066;48.138;16.402;2024-01-30T05:57:03;-0.90;99.90
12015;DHT22;6066;48.138;16.402;2024-01-30T05:59:30;-0.90;99.90
12015;DHT22;6066;48.138;16.402;2024-01-30T06:01:57;-0.90;99.90
12015;DHT22;6066;48.138;16.402;2024-01-30T06:04:25;-0.90;99.90
12015;DHT22;6066;48.138;16.402;2024-01-30T06:06:51;-0.90;99.90
12015;DHT22;6066;48.138;16.402;2024-01-30T06:09:18;-0.80;99.90
12015;DHT22;6066;48.138;16.402;2024-01-30T06:11:45;-0.90;99.90
12015;DHT22;6066;48.138;16.402;2024-01-30T06:14:12;-0.90;99.90
12015;DHT22;6066;48.138;16.402;2024-01-30T06:16:39;-0.90;99.90
12015;DHT22;6066;48.138;16.402;2024-01-30T06:19:05;-0.90;99.90
12015;DHT22;6066;48.138;16.402;2024-01-30T06:21:34;-0.90;99.90
12015;DHT22;6066;48.138;16.402;2024-01-30T06:24:02;-0.90;99.90
12015;DHT22;6066;48.138;16.402;2024-01-30T06:26:29;-1.00;99.90
12015;DHT22;6066;48.138;16.402;2024-01-30T06:28:55;-1.00;99.90
12015;DHT22;6066;48.138;16.402;2024-01-30T06:31:22;-1.00;99.90
12015;DHT22;6066;48.138;16.402;2024-01-30T06:33:49;-1.00;99.90
12015;DHT22;6066;48.138;16.402;2024-01-30T06:36:16;-1.00;99.90
12015;DHT22;6066;48.138;16.402;2024-01-30T06:38:44;-1.00;99.90
12015;DHT22;6066;48.138;16.402;2024-01-30T06:41:11;-0.90;99.90
12015;DHT22;6066;48.138;16.402;2024-01-30T06:43:38;-0.90;99.90
12015;DHT22;6066;48.138;16.402;2024-01-30T06:46:04;-0.90;99.90
12015;DHT22;6066;48.138;16.402;2024-01-30T06:48:31;-0.90;99.90
12015;DHT22;6066;48.138;16.402;2024-01-30T06:50:58;-0.90;99.90
12015;DHT22;6066;48.138;16.402;2024-01-30T06:53:25;-0.90;99.90
12015;DHT22;6066;48.138;16.402;2024-01-30T06:55:53;-0.80;99.90
12015;DHT22;6066;48.138;16.402;2024-01-30T06:58:20;-0.80;99.90
12015;DHT22;6066;48.138;16.402;2024-01-30T07:00:47;-0.80;99.90
12015;DHT22;6066;48.138;16.402;2024-01-30T07:03:13;-0.90;99.90
12015;DHT22;6066;48.138;16.402;2024-01-30T07:05:40;-0.80;99.90
12015;DHT22;6066;48.138;16.402;2024-01-30T07:08:07;-0.80;99.90
12015;DHT22;6066;48.138;16.402;2024-01-30T07:10:34;-0.80;99.90
12015;DHT22;6066;48.138;16.402;2024-01-30T07:13:02;-0.80;99.90
12015;DHT22;6066;48.138;16.402;2024-01-30T07:15:30;-0.80;99.90
12015;DHT22;6066;48.138;16.402;2024-01-30T07:17:57;-0.80;99.90
12015;DHT22;6066;48.138;16.402;2024-01-30T07:20:24;-0.70;99.90
12015;DHT22;6066;48.138;16.402;2024-01-30T07:22:51;-0.70;99.90
12015;DHT22;6066;48.138;16.402;2024-01-30T07:25:17;-0.70;99.90
12015;DHT22;6066;48.138;16.402;2024-01-30T07:27:44;-0.70;99.90
12015;DHT22;6066;48.138;16.402;2024-01-30T07:30:13;-0.70;99.90
12015;DHT22;6066;48.138;16.402;2024-01-30T07:32:40;-0.70;99.90
12015;DHT22;6066;48.138;16.402;2024-01-30T07:35:07;-0.60;99.90
12015;DHT22;6066;48.138;16.402;2024-01-30T07:37:34;-0.60;99.90
12015;DHT22;6066;48.138;16.402;2024-01-30T07:40:01;-0.60;99.90
12015;DHT22;6066;48.138;16.402;2024-01-30T07:42:28;-0.50;99.90
12015;DHT22;6066;48.138;16.402;2024-01-30T07:44:55;-0.50;99.90
12015;DHT22;6066;48.138;16.402;2024-01-30T07:47:23;-0.40;99.90
12015;DHT22;6066;48.138;16.402;2024-01-30T07:49:50;-0.40;99.90
12015;DHT22;6066;48.138;16.402;2024-01-30T07:52:17;-0.30;99.90
12015;DHT22;6066;48.138;16.402;2024-01-30T07:54:43;-0.20;99.90
12015;DHT22;6066;48.138;16.402;2024-01-30T07:57:10;-0.10;99.90
12015;DHT22;6066;48.138;16.402;2024-01-30T07:59:37;0.00;99.90
12015;DHT22;6066;48.138;16.402;2024-01-30T08:02:04;0.00;99.90
12015;DHT22;6066;48.138;16.402;2024-01-30T08:04:32;0.10;99.90
12015;DHT22;6066;48.138;16.402;2024-01-30T08:06:59;0.10;99.90
12015;DHT22;6066;48.138;16.402;2024-01-30T08:09:25;0.20;99.90
12015;DHT22;6066;48.138;16.402;2024-01-30T08:11:52;0.20;99.90
12015;DHT22;6066;48.138;16.402;2024-01-30T08:14:19;0.30;99.90
12015;DHT22;6066;48.138;16.402;2024-01-30T08:16:46;0.30;99.90
12015;DHT22;6066;48.138;16.402;2024-01-30T08:19:14;0.40;99.90
12015;DHT22;6066;48.138;16.402;2024-01-30T08:21:42;0.40;99.90
12015;DHT22;6066;48.138;16.402;2024-01-30T08:24:09;0.40;99.90
12015;DHT22;6066;48.138;16.402;2024-01-30T08:26:36;0.50;99.90
12015;DHT22;6066;48.138;16.402;2024-01-30T08:29:02;0.50;99.90
12015;DHT22;6066;48.138;16.402;2024-01-30T08:31:29;0.60;99.90
12015;DHT22;6066;48.138;16.402;2024-01-30T08:33:56;0.60;99.90
12015;DHT22;6066;48.138;16.402;2024-01-30T08:36:23;0.70;99.90
12015;DHT22;6066;48.138;16.402;2024-01-30T08:38:51;0.70;99.90
12015;DHT22;6066;48.138;16.402;2024-01-30T08:41:18;0.80;99.90
12015;DHT22;6066;48.138;16.402;2024-01-30T08:43:44;0.80;99.90
12015;DHT22;6066;48.138;16.402;2024-01-30T08:46:12;0.90;99.90
12015;DHT22;6066;48.138;16.402;2024-01-30T08:48:38;1.00;99.90
12015;DHT22;6066;48.138;16.402;2024-01-30T08:51:05;1.10;99.90
12015;DHT22;6066;48.138;16.402;2024-01-30T08:53:34;1.20;99.90
12015;DHT22;6066;48.138;16.402;2024-01-30T08:56:02;1.30;99.90
12015;DHT22;6066;48.138;16.402;2024-01-30T08:58:30;1.30;99.90
12015;DHT22;6066;48.138;16.402;2024-01-30T09:00:57;1.40;99.90
12015;DHT22;6066;48.138;16.402;2024-01-30T09:03:23;1.50;99.90
12015;DHT22;6066;48.138;16.402;2024-01-30T09:05:50;1.60;99.90
12015;DHT22;6066;48.138;16.402;2024-01-30T09:08:17;1.70;99.90
12015;DHT22;6066;48.138;16.402;2024-01-30T09:10:44;1.70;99.90
12015;DHT22;6066;48.138;16.402;2024-01-30T09:13:12;1.80;99.90
12015;DHT22;6066;48.138;16.402;2024-01-30T09:15:39;1.90;99.90
12015;DHT22;6066;48.138;16.402;2024-01-30T09:18:06;2.00;99.90
12015;DHT22;6066;48.138;16.402;2024-01-30T09:20:33;2.10;99.90
12015;DHT22;6066;48.138;16.402;2024-01-30T09:23:00;2.20;99.90
12015;DHT22;6066;48.138;16.402;2024-01-30T09:25:27;2.30;99.90
12015;DHT22;6066;48.138;16.402;2024-01-30T09:27:54;2.30;99.90
12015;DHT22;6066;48.138;16.402;2024-01-30T09:30:22;2.50;99.90
12015;DHT22;6066;48.138;16.402;2024-01-30T09:32:50;2.50;99.90
12015;DHT22;6066;48.138;16.402;2024-01-30T09:35:16;2.70;99.90
12015;DHT22;6066;48.138;16.402;2024-01-30T09:37:43;2.80;99.90
12015;DHT22;6066;48.138;16.402;2024-01-30T09:40:10;2.90;99.90
12015;DHT22;6066;48.138;16.402;2024-01-30T09:42:37;3.00;99.90
12015;DHT22;6066;48.138;16.402;2024-01-30T09:45:04;3.00;99.90
12015;DHT22;6066;48.138;16.402;2024-01-30T09:47:33;3.10;99.90
12015;DHT22;6066;48.138;16.402;2024-01-30T09:50:06;3.20;99.90
12015;DHT22;6066;48.138;16.402;2024-01-30T09:52:33;3.30;99.90
12015;DHT22;6066;48.138;16.402;2024-01-30T09:55:00;3.30;99.90
12015;DHT22;6066;48.138;16.402;2024-01-30T09:57:27;3.40;99.90
12015;DHT22;6066;48.138;16.402;2024-01-30T09:59:54;3.50;99.90
12015;DHT22;6066;48.138;16.402;2024-01-30T10:02:21;3.50;99.90
12015;DHT22;6066;48.138;16.402;2024-01-30T14:04:49;6.70;99.90
12015;DHT22;6066;48.138;16.402;2024-01-30T14:07:16;6.70;99.90
12015;DHT22;6066;48.138;16.402;2024-01-30T14:49:51;6.00;99.90
12015;DHT22;6066;48.138;16.402;2024-01-30T14:58:24;5.70;99.90
12015;DHT22;6066;48.138;16.402;2024-01-30T15:00:51;5.70;99.90
12015;DHT22;6066;48.138;16.402;2024-01-30T15:05:48;5.50;99.90
12015;DHT22;6066;48.138;16.402;2024-01-30T15:08:15;5.40;99.90
12015;DHT22;6066;48.138;16.402;2024-01-30T15:10:42;5.40;99.90
12015;DHT22;6066;48.138;16.402;2024-01-30T15:13:09;5.30;99.90
12015;DHT22;6066;48.138;16.402;2024-01-30T15:15:36;5.20;99.90
12015;DHT22;6066;48.138;16.402;2024-01-30T15:18:03;5.20;99.90
12015;DHT22;6066;48.138;16.402;2024-01-30T15:20:30;5.20;99.90
12015;DHT22;6066;48.138;16.402;2024-01-30T15:22:59;5.10;99.90
12015;DHT22;6066;48.138;16.402;2024-01-30T15:25:25;5.00;99.90
12015;DHT22;6066;48.138;16.402;2024-01-30T15:27:54;5.00;99.90
12015;DHT22;6066;48.138;16.402;2024-01-30T15:30:21;4.90;99.90
12015;DHT22;6066;48.138;16.402;2024-01-30T15:32:48;4.90;99.90
12015;DHT22;6066;48.138;16.402;2024-01-30T15:35:14;4.80;99.90
12015;DHT22;6066;48.138;16.402;2024-01-30T15:37:41;4.80;99.90
12015;DHT22;6066;48.138;16.402;2024-01-30T15:40:10;4.80;99.90
12015;DHT22;6066;48.138;16.402;2024-01-30T15:42:37;4.70;99.90
12015;DHT22;6066;48.138;16.402;2024-01-30T15:45:04;4.60;99.90
12015;DHT22;6066;48.138;16.402;2024-01-30T15:47:31;4.60;99.90
12015;DHT22;6066;48.138;16.402;2024-01-30T15:49:58;4.60;99.90
12015;DHT22;6066;48.138;16.402;2024-01-30T15:52:25;4.50;99.90
12015;DHT22;6066;48.138;16.402;2024-01-30T15:54:52;4.50;99.90
12015;DHT22;6066;48.138;16.402;2024-01-30T15:57:20;4.40;99.90
12015;DHT22;6066;48.138;16.402;2024-01-30T15:59:47;4.30;99.90
12015;DHT22;6066;48.138;16.402;2024-01-30T16:02:13;4.30;99.90
12015;DHT22;6066;48.138;16.402;2024-01-30T16:04:40;4.20;99.90
12015;DHT22;6066;48.138;16.402;2024-01-30T16:07:07;4.10;99.90
12015;DHT22;6066;48.138;16.402;2024-01-30T16:09:34;4.00;99.90
12015;DHT22;6066;48.138;16.402;2024-01-30T16:12:01;3.90;99.90
12015;DHT22;6066;48.138;16.402;2024-01-30T16:14:29;3.90;99.90
12015;DHT22;6066;48.138;16.402;2024-01-30T16:16:56;3.80;99.90
12015;DHT22;6066;48.138;16.402;2024-01-30T16:19:23;3.80;99.90
12015;DHT22;6066;48.138;16.402;2024-01-30T16:21:50;3.70;99.90
12015;DHT22;6066;48.138;16.402;2024-01-30T16:24:17;3.60;99.90
12015;DHT22;6066;48.138;16.402;2024-01-30T16:26:48;3.60;99.90
12015;DHT22;6066;48.138;16.402;2024-01-30T16:29:15;3.60;99.90
12015;DHT22;6066;48.138;16.402;2024-01-30T16:31:43;3.60;99.90
12015;DHT22;6066;48.138;16.402;2024-01-30T16:34:10;3.50;99.90
12015;DHT22;6066;48.138;16.402;2024-01-30T16:36:36;3.40;99.90
12015;DHT22;6066;48.138;16.402;2024-01-30T16:39:05;3.50;99.90
12015;DHT22;6066;48.138;16.402;2024-01-30T16:41:32;3.40;99.90
12015;DHT22;6066;48.138;16.402;2024-01-30T16:43:58;3.30;99.90
12015;DHT22;6066;48.138;16.402;2024-01-30T16:46:25;3.30;99.90
12015;DHT22;6066;48.138;16.402;2024-01-30T16:48:53;3.20;99.90
12015;DHT22;6066;48.138;16.402;2024-01-30T16:51:20;3.20;99.90
12015;DHT22;6066;48.138;16.402;2024-01-30T16:53:47;3.20;99.90
12015;DHT22;6066;48.138;16.402;2024-01-30T16:56:14;3.20;99.90
12015;DHT22;6066;48.138;16.402;2024-01-30T16:58:41;3.20;99.90
12015;DHT22;6066;48.138;16.402;2024-01-30T17:01:08;3.10;99.90
12015;DHT22;6066;48.138;16.402;2024-01-30T17:03:34;3.10;99.90
12015;DHT22;6066;48.138;16.402;2024-01-30T17:06:03;3.10;99.90
12015;DHT22;6066;48.138;16.402;2024-01-30T17:08:33;3.00;99.90
12015;DHT22;6066;48.138;16.402;2024-01-30T17:11:00;3.00;99.90
12015;DHT22;6066;48.138;16.402;2024-01-30T17:13:27;3.00;99.90
12015;DHT22;6066;48.138;16.402;2024-01-30T17:15:54;2.90;99.90
12015;DHT22;6066;48.138;16.402;2024-01-30T17:18:22;2.90;99.90
12015;DHT22;6066;48.138;16.402;2024-01-30T17:20:49;2.90;99.90
12015;DHT22;6066;48.138;16.402;2024-01-30T17:23:17;2.90;99.90
12015;DHT22;6066;48.138;16.402;2024-01-30T17:25:47;2.80;99.90
12015;DHT22;6066;48.138;16.402;2024-01-30T17:28:14;2.70;99.90
12015;DHT22;6066;48.138;16.402;2024-01-30T17:30:41;2.70;99.90
12015;DHT22;6066;48.138;16.402;2024-01-30T17:33:08;2.70;99.90
12015;DHT22;6066;48.138;16.402;2024-01-30T17:35:35;2.70;99.90
12015;DHT22;6066;48.138;16.402;2024-01-30T17:38:02;2.70;99.90
12015;DHT22;6066;48.138;16.402;2024-01-30T17:40:30;2.60;99.90
12015;DHT22;6066;48.138;16.402;2024-01-30T17:42:57;2.60;99.90
12015;DHT22;6066;48.138;16.402;2024-01-30T17:45:24;2.50;99.90
12015;DHT22;6066;48.138;16.402;2024-01-30T17:47:51;2.50;99.90
12015;DHT22;6066;48.138;16.402;2024-01-30T17:50:18;2.50;99.90
12015;DHT22;6066;48.138;16.402;2024-01-30T17:52:45;2.50;99.90
12015;DHT22;6066;48.138;16.402;2024-01-30T17:55:14;2.40;99.90
12015;DHT22;6066;48.138;16.402;2024-01-30T17:57:42;2.40;99.90
12015;DHT22;6066;48.138;16.402;2024-01-30T18:00:09;2.40;99.90
12015;DHT22;6066;48.138;16.402;2024-01-30T18:02:36;2.40;99.90
12015;DHT22;6066;48.138;16.402;2024-01-30T18:05:04;2.30;99.90
12015;DHT22;6066;48.138;16.402;2024-01-30T18:07:31;2.30;99.90
12015;DHT22;6066;48.138;16.402;2024-01-30T18:09:57;2.30;99.90
12015;DHT22;6066;48.138;16.402;2024-01-30T18:12:24;2.20;99.90
12015;DHT22;6066;48.138;16.402;2024-01-30T18:14:52;2.20;99.90
12015;DHT22;6066;48.138;16.402;2024-01-30T18:17:19;2.20;99.90
12015;DHT22;6066;48.138;16.402;2024-01-30T18:19:46;2.10;99.90
12015;DHT22;6066;48.138;16.402;2024-01-30T18:22:13;2.00;99.90
12015;DHT22;6066;48.138;16.402;2024-01-30T18:24:40;1.90;99.90
12015;DHT22;6066;48.138;16.402;2024-01-30T18:27:07;1.90;99.90
12015;DHT22;6066;48.138;16.402;2024-01-30T18:29:35;1.90;99.90
12015;DHT22;6066;48.138;16.402;2024-01-30T18:32:03;1.90;99.90
12015;DHT22;6066;48.138;16.402;2024-01-30T18:34:30;1.80;99.90
12015;DHT22;6066;48.138;16.402;2024-01-30T18:36:57;1.80;99.90
12015;DHT22;6066;48.138;16.402;2024-01-30T18:39:26;1.80;99.90
12015;DHT22;6066;48.138;16.402;2024-01-30T18:41:52;1.70;99.90
12015;DHT22;6066;48.138;16.402;2024-01-30T18:44:21;1.70;99.90
12015;DHT22;6066;48.138;16.402;2024-01-30T18:46:48;1.70;99.90
12015;DHT22;6066;48.138;16.402;2024-01-30T18:49:16;1.70;99.90
12015;DHT22;6066;48.138;16.402;2024-01-30T18:51:46;1.70;99.90
12015;DHT22;6066;48.138;16.402;2024-01-30T18:54:14;1.70;99.90
12015;DHT22;6066;48.138;16.402;2024-01-30T18:56:41;1.70;99.90
12015;DHT22;6066;48.138;16.402;2024-01-30T18:59:08;1.60;99.90
12015;DHT22;6066;48.138;16.402;2024-01-30T19:01:34;1.60;99.90
12015;DHT22;6066;48.138;16.402;2024-01-30T19:04:04;1.60;99.90
12015;DHT22;6066;48.138;16.402;2024-01-30T19:06:34;1.60;99.90
12015;DHT22;6066;48.138;16.402;2024-01-30T19:09:01;1.50;99.90
12015;DHT22;6066;48.138;16.402;2024-01-30T19:11:28;1.60;99.90
12015;DHT22;6066;48.138;16.402;2024-01-30T19:13:55;1.60;99.90
12015;DHT22;6066;48.138;16.402;2024-01-30T19:16:22;1.60;99.90
12015;DHT22;6066;48.138;16.402;2024-01-30T19:18:49;1.50;99.90
12015;DHT22;6066;48.138;16.402;2024-01-30T19:21:16;1.50;99.90
12015;DHT22;6066;48.138;16.402;2024-01-30T19:23:45;1.40;99.90
12015;DHT22;6066;48.138;16.402;2024-01-30T19:26:11;1.40;99.90
12015;DHT22;6066;48.138;16.402;2024-01-30T19:28:39;1.40;99.90
12015;DHT22;6066;48.138;16.402;2024-01-30T19:31:06;1.40;99.90
12015;DHT22;6066;48.138;16.402;2024-01-30T19:33:33;1.40;99.90
12015;DHT22;6066;48.138;16.402;2024-01-30T19:36:00;1.30;99.90
12015;DHT22;6066;48.138;16.402;2024-01-30T19:38:27;1.30;99.90
12015;DHT22;6066;48.138;16.402;2024-01-30T19:40:55;1.30;99.90
12015;DHT22;6066;48.138;16.402;2024-01-30T19:43:23;1.20;99.90
12015;DHT22;6066;48.138;16.402;2024-01-30T19:45:50;1.10;99.90
12015;DHT22;6066;48.138;16.402;2024-01-30T19:48:17;1.10;99.90
12015;DHT22;6066;48.138;16.402;2024-01-30T19:50:44;1.00;99.90
12015;DHT22;6066;48.138;16.402;2024-01-30T19:53:11;0.90;99.90
12015;DHT22;6066;48.138;16.402;2024-01-30T19:55:38;0.90;99.90
12015;DHT22;6066;48.138;16.402;2024-01-30T19:58:06;0.80;99.90
12015;DHT22;6066;48.138;16.402;2024-01-30T20:00:33;0.80;99.90
12015;DHT22;6066;48.138;16.402;2024-01-30T20:03:00;0.70;99.90
12015;DHT22;6066;48.138;16.402;2024-01-30T20:05:27;0.70;99.90
12015;DHT22;6066;48.138;16.402;2024-01-30T20:07:53;0.60;99.90
12015;DHT22;6066;48.138;16.402;2024-01-30T20:10:20;0.60;99.90
12015;DHT22;6066;48.138;16.402;2024-01-30T20:12:47;0.60;99.90
12015;DHT22;6066;48.138;16.402;2024-01-30T20:15:17;0.50;99.90
12015;DHT22;6066;48.138;16.402;2024-01-30T20:17:44;0.40;99.90
12015;DHT22;6066;48.138;16.402;2024-01-30T20:20:11;0.40;99.90
12015;DHT22;6066;48.138;16.402;2024-01-30T20:22:37;0.30;99.90
12015;DHT22;6066;48.138;16.402;2024-01-30T20:25:05;0.20;99.90
12015;DHT22;6066;48.138;16.402;2024-01-30T20:27:32;0.10;99.90